Time;durP1;ratioP1;P1;durP2;ratioP2;P2;SDS_P1;SDS_P2;PMS_P1;PMS_P2;Temp;Humidity;BMP_temperature;BMP_pressure;BME280_temperature;BME280_humidity;BME280_pressure;Samples;Min_cycle;Max_cycle;Signal;HPM_P1;HPM_P2
2022/10/14 00:01:52;;;;;;;8.63;5.20;;;;;;;;;;5011841;28;20049;-44
2022/10/14 00:04:17;;;;;;;9.07;5.43;;;;;;;;;;5011882;28;20128;-46
2022/10/14 00:06:42;;;;;;;15.32;5.65;;;;;;;;;;5008431;28;20089;-43
2022/10/14 00:09:09;;;;;;;11.98;5.43;;;;;;;;;;5009154;28;20113;-46
2022/10/14 00:11:35;;;;;;;12.05;5.55;;;;;;;;;;5010944;28;20037;-43
2022/10/14 00:14:11;;;;;;;9.90;5.07;;;;;;;;;;5009054;28;20471;-46
2022/10/14 00:16:39;;;;;;;11.80;5.40;;;;;;;;;;5009124;28;20065;-44
2022/10/14 00:19:05;;;;;;;12.73;5.60;;;;;;;;;;5009690;28;20056;-43
2022/10/14 00:21:32;;;;;;;11.07;5.43;;;;;;;;;;5008127;28;20042;-47
2022/10/14 00:23:57;;;;;;;11.57;4.80;;;;;;;;;;5007323;28;20029;-44
2022/10/14 00:26:29;;;;;;;12.20;6.00;;;;;;;;;;5009011;28;20030;-43
2022/10/14 00:28:55;;;;;;;;;;;;;;;;;;5011311;28;20394;-43
2022/10/14 00:31:20;;;;;;;10.75;5.40;;;;;;;;;;5010957;28;19917;-43
2022/10/14 00:33:46;;;;;;;14.35;5.00;;;;;;;;;;5008426;28;20500;-43
2022/10/14 00:36:15;;;;;;;8.27;5.13;;;;;;;;;;5009592;28;20770;-45
2022/10/14 00:38:41;;;;;;;11.77;5.10;;;;;;;;;;5007951;28;20421;-44
2022/10/14 00:41:09;;;;;;;10.15;5.20;;;;;;;;;;5008398;28;20041;-45
2022/10/14 00:44:01;;;;;;;11.80;5.68;;;;;;;;;;5008730;28;20081;-43
2022/10/14 00:46:30;;;;;;;9.15;5.32;;;;;;;;;;5006284;28;20056;-45
2022/10/14 00:48:58;;;;;;;14.30;5.47;;;;;;;;;;5009532;28;20018;-46
2022/10/14 00:51:24;;;;;;;10.55;4.80;;;;;;;;;;5008214;28;20029;-43
2022/10/14 00:53:49;;;;;;;11.30;5.85;;;;;;;;;;5010142;28;20029;-44
2022/10/14 00:56:18;;;;;;;9.93;5.03;;;;;;;;;;5008108;28;20030;-45
2022/10/14 00:58:44;;;;;;;9.93;5.25;;;;;;;;;;5007660;28;20609;-43
2022/10/14 01:01:10;;;;;;;9.48;5.30;;;;;;;;;;5009598;28;20034;-45
2022/10/14 01:03:35;;;;;;;12.20;5.43;;;;;;;;;;5010446;28;20048;-43
2022/10/14 01:06:14;;;;;;;11.32;5.90;;;;;;;;;;5006665;28;20026;-45
2022/10/14 01:08:44;;;;;;;10.98;5.47;;;;;;;;;;5009554;28;20050;-44
2022/10/14 01:11:29;;;;;;;11.02;5.28;;;;;;;;;;5007712;28;20038;-44
2022/10/14 01:14:11;;;;;;;11.50;5.40;;;;;;;;;;5010146;28;20030;-44
2022/10/14 01:16:44;;;;;;;13.35;5.68;;;;;;;;;;5007655;28;20036;-43
2022/10/14 01:19:15;;;;;;;8.82;4.78;;;;;;;;;;5006236;28;20104;-45
2022/10/14 01:21:47;;;;;;;8.80;5.05;;;;;;;;;;5005970;28;20080;-45
2022/10/14 01:24:40;;;;;;;7.53;5.18;;;;;;;;;;5023458;28;20120;-45
2022/10/14 01:27:09;;;;;;;9.38;5.20;;;;;;;;;;5006969;28;20042;-44
2022/10/14 01:29:52;;;;;;;11.02;4.90;;;;;;;;;;5009614;28;20030;-44
2022/10/14 01:32:43;;;;;;;8.68;5.07;;;;;;;;;;5005015;28;20145;-42
2022/10/14 01:35:37;;;;;;;7.63;5.20;;;;;;;;;;4998539;28;20046;-44
2022/10/14 01:38:11;;;;;;;14.68;5.05;;;;;;;;;;4965144;28;20408;-44
2022/10/14 01:40:49;;;;;;;7.20;5.13;;;;;;;;;;4966131;28;20407;-45
2022/10/14 01:43:16;;;;;;;11.15;5.50;;;;;;;;;;4962065;28;20431;-44
2022/10/14 01:45:44;;;;;;;7.55;4.82;;;;;;;;;;4966016;28;20033;-43
2022/10/14 01:48:11;;;;;;;11.13;5.30;;;;;;;;;;4967179;28;20042;-45
2022/10/14 01:50:38;;;;;;;7.35;4.63;;;;;;;;;;4964588;28;20058;-44
2022/10/14 01:53:08;;;;;;;10.55;5.00;;;;;;;;;;4965623;28;20046;-45
2022/10/14 01:55:41;;;;;;;7.55;5.07;;;;;;;;;;4965188;28;20560;-45
2022/10/14 01:58:09;;;;;;;8.32;4.80;;;;;;;;;;4962897;28;20055;-44
2022/10/14 02:00:35;;;;;;;15.77;5.80;;;;;;;;;;4967361;28;20498;-43
2022/10/14 02:03:00;;;;;;;13.77;5.32;;;;;;;;;;4966293;28;20038;-44
2022/10/14 02:05:37;;;;;;;11.23;5.20;;;;;;;;;;4964780;28;20037;-44
2022/10/14 02:08:37;;;;;;;11.75;5.80;;;;;;;;;;4947899;28;20109;-43
2022/10/14 02:11:15;;;;;;;20.98;5.85;;;;;;;;;;4961685;28;20042;-43
2022/10/14 02:14:04;;;;;;;10.25;5.38;;;;;;;;;;4965695;28;20131;-42
2022/10/14 02:16:47;;;;;;;8.80;4.88;;;;;;;;;;4988887;28;20026;-44
2022/10/14 02:19:23;;;;;;;7.45;4.78;;;;;;;;;;4987721;28;20019;-45
2022/10/14 02:22:03;;;;;;;13.82;5.10;;;;;;;;;;4988552;28;20073;-42
2022/10/14 02:24:38;;;;;;;11.55;5.07;;;;;;;;;;4984064;28;20042;-42
2022/10/14 02:27:08;;;;;;;12.23;5.22;;;;;;;;;;4986366;28;20042;-44
2022/10/14 02:29:36;;;;;;;8.60;4.97;;;;;;;;;;4988753;28;20027;-42
2022/10/14 02:32:05;;;;;;;11.75;5.30;;;;;;;;;;4986045;28;20053;-45
2022/10/14 02:34:31;;;;;;;17.45;5.65;;;;;;;;;;4989232;28;20030;-45
2022/10/14 02:36:58;;;;;;;11.80;5.25;;;;;;;;;;4987812;28;20113;-42
2022/10/14 02:39:47;;;;;;;7.82;4.55;;;;;;;;;;4987796;28;20041;-44
2022/10/14 02:42:13;;;;;;;8.55;4.97;;;;;;;;;;5002436;28;20073;-48
2022/10/14 02:44:51;;;;;;;9.25;4.53;;;;;;;;;;5009376;28;20065;-44
2022/10/14 02:47:16;;;;;;;9.85;4.82;;;;;;;;;;5006268;28;20037;-43
2022/10/14 02:49:41;;;;;;;11.93;5.60;;;;;;;;;;5006527;28;20037;-43
2022/10/14 02:52:07;;;;;;;13.25;5.22;;;;;;;;;;5006658;28;20054;-42
2022/10/14 02:54:32;;;;;;;6.28;4.88;;;;;;;;;;5008046;28;20038;-42
2022/10/14 02:56:57;;;;;;;8.23;4.50;;;;;;;;;;5003627;28;20491;-42
2022/10/14 02:59:23;;;;;;;8.02;4.75;;;;;;;;;;5007838;28;20044;-47
2022/10/14 03:01:48;;;;;;;7.95;4.75;;;;;;;;;;5004892;28;20053;-45
2022/10/14 03:04:14;;;;;;;9.18;4.32;;;;;;;;;;5004783;28;20466;-44
2022/10/14 03:06:39;;;;;;;9.50;5.13;;;;;;;;;;5005675;28;20117;-42
2022/10/14 03:09:04;;;;;;;11.70;5.00;;;;;;;;;;5009073;28;20045;-43
2022/10/14 03:11:30;;;;;;;10.38;5.13;;;;;;;;;;5006001;28;20029;-43
2022/10/14 03:13:55;;;;;;;8.40;4.75;;;;;;;;;;5006169;28;20496;-42
2022/10/14 03:16:20;;;;;;;7.57;4.70;;;;;;;;;;5008276;28;20030;-42
2022/10/14 03:18:46;;;;;;;10.18;4.80;;;;;;;;;;5004634;28;20030;-44
2022/10/14 03:21:11;;;;;;;6.47;5.35;;;;;;;;;;5006674;28;20044;-46
2022/10/14 03:23:36;;;;;;;17.58;4.22;;;;;;;;;;5007640;28;20033;-46
2022/10/14 03:26:02;;;;;;;5.07;4.30;;;;;;;;;;5010010;28;20026;-43
2022/10/14 03:28:27;;;;;;;6.78;4.60;;;;;;;;;;5004275;28;20049;-43
2022/10/14 03:30:53;;;;;;;8.10;4.40;;;;;;;;;;5005808;28;20026;-45
2022/10/14 03:33:18;;;;;;;7.47;3.88;;;;;;;;;;5011981;28;20445;-43
2022/10/14 03:35:43;;;;;;;11.52;4.63;;;;;;;;;;5011317;28;20021;-43
2022/10/14 03:38:09;;;;;;;4.70;4.10;;;;;;;;;;5011065;28;20038;-42
2022/10/14 03:40:34;;;;;;;7.80;4.60;;;;;;;;;;5011620;28;20099;-43
2022/10/14 03:43:00;;;;;;;8.45;5.43;;;;;;;;;;5010440;28;20172;-43
2022/10/14 03:45:27;;;;;;;6.45;4.38;;;;;;;;;;5012050;28;20471;-46
2022/10/14 03:47:53;;;;;;;12.05;4.68;;;;;;;;;;5009290;28;20069;-43
2022/10/14 03:50:18;;;;;;;13.10;4.20;;;;;;;;;;5012402;28;20049;-44
2022/10/14 03:52:43;;;;;;;10.00;4.20;;;;;;;;;;5010071;28;20045;-43
2022/10/14 03:55:09;;;;;;;11.45;4.80;;;;;;;;;;5011631;28;20406;-42
2022/10/14 03:57:34;;;;;;;9.23;4.50;;;;;;;;;;5010325;28;20057;-42
2022/10/14 04:00:00;;;;;;;10.10;4.38;;;;;;;;;;5010670;28;20107;-41
2022/10/14 04:02:25;;;;;;;9.90;4.50;;;;;;;;;;5012516;28;20505;-45
2022/10/14 04:04:50;;;;;;;10.35;4.30;;;;;;;;;;5011106;28;20029;-45
2022/10/14 04:07:16;;;;;;;11.95;4.43;;;;;;;;;;5005979;28;20035;-47
2022/10/14 04:09:41;;;;;;;6.63;4.20;;;;;;;;;;5009416;28;20595;-42
2022/10/14 04:12:06;;;;;;;9.30;4.18;;;;;;;;;;5011269;28;20058;-45
2022/10/14 04:14:32;;;;;;;9.88;4.22;;;;;;;;;;5010596;28;20415;-44
2022/10/14 04:16:58;;;;;;;8.50;3.80;;;;;;;;;;5003281;28;20038;-46
2022/10/14 04:19:23;;;;;;;9.43;4.13;;;;;;;;;;5010530;28;20501;-43
2022/10/14 04:21:48;;;;;;;10.48;4.60;;;;;;;;;;5005463;28;20041;-43
2022/10/14 04:24:14;;;;;;;10.38;4.38;;;;;;;;;;5005450;28;20026;-45
2022/10/14 04:26:39;;;;;;;6.30;4.30;;;;;;;;;;5003613;28;20505;-48
2022/10/14 04:29:05;;;;;;;7.72;4.03;;;;;;;;;;5003226;28;20038;-43
2022/10/14 04:31:30;;;;;;;12.00;4.93;;;;;;;;;;5008326;28;20045;-44
2022/10/14 04:33:55;;;;;;;13.68;4.53;;;;;;;;;;5007419;28;20467;-42
2022/10/14 04:36:21;;;;;;;12.70;4.57;;;;;;;;;;5008262;28;20034;-41
2022/10/14 04:38:46;;;;;;;11.63;4.95;;;;;;;;;;5009756;28;20022;-42
2022/10/14 04:41:12;;;;;;;10.32;4.57;;;;;;;;;;5004802;28;20046;-42
2022/10/14 04:43:37;;;;;;;10.38;4.68;;;;;;;;;;5004965;28;20049;-42
2022/10/14 04:46:03;;;;;;;15.80;4.82;;;;;;;;;;5006719;28;20057;-43
2022/10/14 04:48:28;;;;;;;8.75;4.82;;;;;;;;;;5008570;28;20391;-45
2022/10/14 04:50:54;;;;;;;16.33;5.72;;;;;;;;;;5010068;28;20112;-44
2022/10/14 04:53:19;;;;;;;8.32;4.53;;;;;;;;;;5007591;28;20041;-44
2022/10/14 04:55:48;;;;;;;12.73;4.38;;;;;;;;;;5010159;28;20466;-41
2022/10/14 04:58:14;;;;;;;11.98;5.88;;;;;;;;;;5007771;28;20422;-43
2022/10/14 05:00:40;;;;;;;12.00;5.18;;;;;;;;;;5007670;28;20041;-44
2022/10/14 05:03:06;;;;;;;7.95;4.18;;;;;;;;;;5008221;28;20050;-46
2022/10/14 05:05:31;;;;;;;11.35;4.80;;;;;;;;;;5003112;28;20037;-42
2022/10/14 05:07:57;;;;;;;7.28;4.35;;;;;;;;;;5000589;28;20663;-44
2022/10/14 05:10:22;;;;;;;12.15;5.40;;;;;;;;;;5004759;28;20022;-42
2022/10/14 05:12:48;;;;;;;10.25;4.32;;;;;;;;;;5003122;28;20045;-43
2022/10/14 05:15:14;;;;;;;10.25;4.88;;;;;;;;;;5001059;28;20030;-44
2022/10/14 05:17:43;;;;;;;10.27;4.78;;;;;;;;;;4999475;28;20038;-43
2022/10/14 05:20:09;;;;;;;11.82;5.10;;;;;;;;;;4997944;28;20034;-42
2022/10/14 05:22:34;;;;;;;8.52;4.47;;;;;;;;;;5004996;28;20045;-42
2022/10/14 05:25:00;;;;;;;10.13;4.35;;;;;;;;;;4999954;28;20041;-42
2022/10/14 05:27:25;;;;;;;11.13;3.92;;;;;;;;;;5003323;28;20518;-42
2022/10/14 05:29:50;;;;;;;14.50;4.75;;;;;;;;;;5002008;28;20026;-43
2022/10/14 05:32:16;;;;;;;12.73;4.28;;;;;;;;;;5003114;28;20103;-42
2022/10/14 05:34:41;;;;;;;8.45;4.13;;;;;;;;;;5003433;28;20037;-45
2022/10/14 05:37:07;;;;;;;9.50;4.78;;;;;;;;;;4997442;28;20095;-43
2022/10/14 05:39:32;;;;;;;8.73;5.28;;;;;;;;;;5001164;28;20030;-42
2022/10/14 05:41:58;;;;;;;8.75;4.57;;;;;;;;;;5001436;28;20065;-41
2022/10/14 05:44:23;;;;;;;9.90;6.88;;;;;;;;;;5002503;28;20026;-46
2022/10/14 05:46:49;;;;;;;13.93;7.68;;;;;;;;;;5000287;28;20053;-43
2022/10/14 05:49:14;;;;;;;15.40;7.43;;;;;;;;;;5001041;28;20021;-45
2022/10/14 05:51:40;;;;;;;13.93;6.43;;;;;;;;;;4997041;28;20034;-46
2022/10/14 05:54:05;;;;;;;10.18;5.60;;;;;;;;;;4998277;28;20610;-42
2022/10/14 05:56:30;;;;;;;11.40;6.57;;;;;;;;;;5004353;28;20117;-44
2022/10/14 05:58:56;;;;;;;12.65;6.75;;;;;;;;;;4996474;28;20053;-43
2022/10/14 06:01:22;;;;;;;12.45;6.47;;;;;;;;;;4996902;28;20113;-43
2022/10/14 06:03:51;;;;;;;9.95;5.75;;;;;;;;;;5001261;28;20434;-44
2022/10/14 06:06:17;;;;;;;11.98;5.57;;;;;;;;;;5003451;28;20040;-44
2022/10/14 06:08:43;;;;;;;10.52;5.20;;;;;;;;;;5002457;28;20044;-43
2022/10/14 06:11:10;;;;;;;10.88;4.63;;;;;;;;;;5001620;28;20046;-45
2022/10/14 06:13:35;;;;;;;11.25;4.97;;;;;;;;;;4999958;28;20046;-43
2022/10/14 06:16:05;;;;;;;12.18;4.65;;;;;;;;;;4995610;28;20040;-44
2022/10/14 06:18:31;;;;;;;8.52;5.03;;;;;;;;;;4998041;28;20069;-45
2022/10/14 06:20:56;;;;;;;9.85;4.75;;;;;;;;;;5008805;28;20021;-43
2022/10/14 06:23:22;;;;;;;7.00;4.80;;;;;;;;;;5009248;28;20038;-42
2022/10/14 06:25:47;;;;;;;11.95;5.10;;;;;;;;;;5008994;28;20025;-43
2022/10/14 06:28:12;;;;;;;11.98;4.80;;;;;;;;;;5002507;28;20065;-42
2022/10/14 06:30:38;;;;;;;15.95;4.75;;;;;;;;;;5000042;28;20065;-42
2022/10/14 06:33:03;;;;;;;7.40;5.00;;;;;;;;;;4999505;28;20050;-43
2022/10/14 06:35:29;;;;;;;6.93;4.82;;;;;;;;;;5003892;28;20036;-44
2022/10/14 06:37:54;;;;;;;8.90;4.60;;;;;;;;;;5000804;28;20030;-44
2022/10/14 06:40:20;;;;;;;8.98;4.93;;;;;;;;;;5003470;28;20018;-43
2022/10/14 06:42:45;;;;;;;7.03;4.63;;;;;;;;;;4996552;28;20061;-43
2022/10/14 06:45:11;;;;;;;13.50;5.38;;;;;;;;;;5000394;28;20105;-44
2022/10/14 06:47:36;;;;;;;31.80;6.35;;;;;;;;;;5003521;28;20149;-43
2022/10/14 06:50:03;;;;;;;59.55;8.98;;;;;;;;;;5000513;28;20053;-42
2022/10/14 06:52:28;;;;;;;66.38;8.88;;;;;;;;;;5000623;28;20478;-44
2022/10/14 06:54:54;;;;;;;37.72;7.57;;;;;;;;;;5001217;28;20037;-43
2022/10/14 06:57:19;;;;;;;35.88;6.90;;;;;;;;;;5003263;28;20034;-42
2022/10/14 06:59:44;;;;;;;36.80;8.32;;;;;;;;;;5000861;28;20030;-42
2022/10/14 07:02:10;;;;;;;34.30;7.80;;;;;;;;;;5002406;28;20069;-42
2022/10/14 07:04:36;;;;;;;23.60;4.85;;;;;;;;;;5000406;28;20040;-43
2022/10/14 07:07:02;;;;;;;33.28;6.43;;;;;;;;;;5002292;28;20132;-43
2022/10/14 07:09:28;;;;;;;15.77;4.20;;;;;;;;;;5003696;28;20551;-42
2022/10/14 07:11:53;;;;;;;13.25;4.38;;;;;;;;;;4999311;28;20048;-42
2022/10/14 07:14:19;;;;;;;4.32;2.53;;;;;;;;;;5003107;28;20064;-42
2022/10/14 07:16:44;;;;;;;5.75;3.05;;;;;;;;;;5001229;28;20042;-45
2022/10/14 07:19:10;;;;;;;5.40;2.83;;;;;;;;;;5003849;28;20478;-44
2022/10/14 07:21:35;;;;;;;13.65;3.35;;;;;;;;;;5003781;28;20034;-43
2022/10/14 07:24:01;;;;;;;4.70;2.60;;;;;;;;;;5001451;28;20042;-42
2022/10/14 07:26:29;;;;;;;15.65;2.78;;;;;;;;;;5000588;28;20026;-44
2022/10/14 07:28:55;;;;;;;5.47;2.30;;;;;;;;;;5002010;28;20042;-43
2022/10/14 07:31:20;;;;;;;9.85;3.03;;;;;;;;;;5001772;28;20034;-43
2022/10/14 07:33:45;;;;;;;7.95;3.05;;;;;;;;;;5002931;28;20042;-43
2022/10/14 07:36:13;;;;;;;8.00;2.53;;;;;;;;;;5001172;28;20029;-43
2022/10/14 07:38:39;;;;;;;8.57;2.92;;;;;;;;;;5002519;28;20037;-42
2022/10/14 07:41:21;;;;;;;4.35;2.45;;;;;;;;;;5001980;28;20069;-43
2022/10/14 07:43:52;;;;;;;11.27;3.08;;;;;;;;;;4997907;28;20041;-43
2022/10/14 07:46:31;;;;;;;4.22;3.05;;;;;;;;;;5003304;28;20482;-43
2022/10/14 07:49:02;;;;;;;9.00;2.63;;;;;;;;;;5000908;28;20510;-43
2022/10/14 07:51:28;;;;;;;4.18;2.80;;;;;;;;;;5002684;28;20386;-43
2022/10/14 07:53:55;;;;;;;7.38;2.75;;;;;;;;;;5000418;28;20033;-43
2022/10/14 07:56:21;;;;;;;4.78;2.78;;;;;;;;;;5002775;28;20034;-43
2022/10/14 07:58:47;;;;;;;9.65;3.03;;;;;;;;;;5000489;28;20065;-43
2022/10/14 08:01:14;;;;;;;8.88;3.00;;;;;;;;;;5000600;28;20053;-42
2022/10/14 08:03:40;;;;;;;7.00;3.40;;;;;;;;;;5002216;28;20070;-43
2022/10/14 08:06:06;;;;;;;8.20;3.53;;;;;;;;;;5001057;28;20061;-42
2022/10/14 08:08:32;;;;;;;5.40;3.60;;;;;;;;;;5000915;28;20449;-42
2022/10/14 08:11:10;;;;;;;9.45;3.65;;;;;;;;;;4999653;28;20065;-46
2022/10/14 08:13:36;;;;;;;6.75;3.35;;;;;;;;;;5003061;28;20045;-42
2022/10/14 08:16:02;;;;;;;23.02;4.60;;;;;;;;;;5003191;28;20026;-44
2022/10/14 08:18:27;;;;;;;5.07;3.45;;;;;;;;;;5005366;28;20038;-48
2022/10/14 08:20:53;;;;;;;4.25;3.25;;;;;;;;;;5009199;28;20030;-43
2022/10/14 08:23:19;;;;;;;8.65;2.92;;;;;;;;;;5010683;28;20390;-43
2022/10/14 08:25:46;;;;;;;12.38;3.80;;;;;;;;;;5008126;28;20033;-43
2022/10/14 08:28:12;;;;;;;9.15;3.47;;;;;;;;;;5002247;28;20172;-42
2022/10/14 08:30:37;;;;;;;7.40;3.72;;;;;;;;;;5003293;28;20116;-43
2022/10/14 08:33:02;;;;;;;5.68;3.30;;;;;;;;;;5003656;28;20046;-42
2022/10/14 08:35:28;;;;;;;12.02;3.85;;;;;;;;;;5006820;28;20518;-43
2022/10/14 08:37:56;;;;;;;5.22;2.80;;;;;;;;;;5006183;28;20061;-43
2022/10/14 08:40:21;;;;;;;5.00;3.00;;;;;;;;;;5011916;28;20156;-44
2022/10/14 08:43:03;;;;;;;6.30;3.17;;;;;;;;;;5011131;28;20129;-43
2022/10/14 08:45:34;;;;;;;4.80;2.90;;;;;;;;;;5025288;28;20033;-43
2022/10/14 08:48:03;;;;;;;9.38;3.08;;;;;;;;;;5015873;28;20041;-44
2022/10/14 08:50:37;;;;;;;14.63;4.50;;;;;;;;;;5008685;28;20026;-43
2022/10/14 08:53:37;;;;;;;11.63;4.03;;;;;;;;;;5007878;28;20495;-46
2022/10/14 08:56:04;;;;;;;9.35;3.92;;;;;;;;;;5000553;28;20109;-43
2022/10/14 08:58:43;;;;;;;9.43;4.35;;;;;;;;;;5009727;28;20042;-44
2022/10/14 09:01:31;;;;;;;11.57;4.10;;;;;;;;;;5024801;28;20446;-43
2022/10/14 09:04:03;;;;;;;13.18;3.63;;;;;;;;;;5006271;28;20578;-42
2022/10/14 09:06:34;;;;;;;6.95;3.95;;;;;;;;;;5010916;28;20121;-47
2022/10/14 09:09:08;;;;;;;9.75;4.38;;;;;;;;;;5010859;28;20029;-44
2022/10/14 09:11:40;;;;;;;8.63;3.90;;;;;;;;;;5021723;28;20022;-44
2022/10/14 09:14:08;;;;;;;8.45;4.22;;;;;;;;;;5009548;28;20491;-43
2022/10/14 09:16:37;;;;;;;6.63;4.00;;;;;;;;;;5009483;28;20053;-43
2022/10/14 09:19:35;;;;;;;7.43;3.88;;;;;;;;;;5007490;28;20407;-44
2022/10/14 09:22:01;;;;;;;16.45;4.00;;;;;;;;;;5001611;28;20473;-44
2022/10/14 09:24:34;;;;;;;4.57;3.20;;;;;;;;;;5007465;28;20519;-43
2022/10/14 09:27:05;;;;;;;3.70;3.00;;;;;;;;;;5005140;28;20495;-45
2022/10/14 09:29:39;;;;;;;3.75;3.17;;;;;;;;;;5004251;28;20037;-47
2022/10/14 09:32:11;;;;;;;5.75;4.03;;;;;;;;;;5005620;28;20045;-43
2022/10/14 09:34:40;;;;;;;5.20;3.97;;;;;;;;;;5007066;28;20131;-43
2022/10/14 09:37:27;;;;;;;5.88;3.47;;;;;;;;;;5008452;28;20038;-46
2022/10/14 09:40:03;;;;;;;5.00;3.15;;;;;;;;;;5009247;28;20096;-45
2022/10/14 09:42:43;;;;;;;5.30;3.53;;;;;;;;;;5007393;28;20410;-45
2022/10/14 09:45:17;;;;;;;12.27;3.30;;;;;;;;;;5004617;28;20022;-44
2022/10/14 09:47:55;;;;;;;9.77;3.42;;;;;;;;;;5007859;28;20060;-44
2022/10/14 09:50:30;;;;;;;11.90;3.50;;;;;;;;;;5006461;28;20034;-45
2022/10/14 09:53:01;;;;;;;12.93;3.50;;;;;;;;;;5004987;28;20034;-43
2022/10/14 09:55:26;;;;;;;3.78;3.15;;;;;;;;;;5008554;28;20367;-44
2022/10/14 09:58:02;;;;;;;5.38;3.03;;;;;;;;;;5009624;28;20049;-45
2022/10/14 10:00:29;;;;;;;4.03;3.10;;;;;;;;;;5007217;28;20030;-45
2022/10/14 10:02:55;;;;;;;9.20;3.20;;;;;;;;;;5001417;28;20049;-44
2022/10/14 10:05:30;;;;;;;8.07;3.08;;;;;;;;;;5004017;28;20028;-43
2022/10/14 10:08:17;;;;;;;6.20;3.38;;;;;;;;;;4997510;28;20046;-46
2022/10/14 10:11:07;;;;;;;8.60;4.22;;;;;;;;;;5004829;28;20073;-44
2022/10/14 10:13:38;;;;;;;4.97;3.58;;;;;;;;;;5005846;28;20077;-44
2022/10/14 10:16:05;;;;;;;4.43;3.25;;;;;;;;;;5004224;28;20033;-44
2022/10/14 10:18:31;;;;;;;10.07;3.58;;;;;;;;;;5004759;28;20128;-46
2022/10/14 10:21:05;;;;;;;8.50;3.65;;;;;;;;;;5003988;28;20116;-44
2022/10/14 10:23:33;;;;;;;6.55;4.10;;;;;;;;;;5005022;28;20037;-45
2022/10/14 10:26:25;;;;;;;4.20;3.22;;;;;;;;;;5002994;28;20029;-43
2022/10/14 10:28:52;;;;;;;3.92;2.80;;;;;;;;;;5003291;28;20050;-46
2022/10/14 10:31:23;;;;;;;6.55;2.90;;;;;;;;;;5004114;28;20038;-44
2022/10/14 10:33:55;;;;;;;2.30;2.00;;;;;;;;;;5002166;28;20538;-45
2022/10/14 10:36:29;;;;;;;2.72;2.53;;;;;;;;;;5002362;28;20040;-45
2022/10/14 10:39:01;;;;;;;2.20;2.00;;;;;;;;;;4999208;28;20494;-45
2022/10/14 10:41:46;;;;;;;2.53;1.75;;;;;;;;;;4999890;28;20052;-45
2022/10/14 10:44:39;;;;;;;1.95;1.85;;;;;;;;;;5009050;28;20029;-44
2022/10/14 10:47:39;;;;;;;8.60;1.60;;;;;;;;;;5006055;28;20045;-44
2022/10/14 10:50:29;;;;;;;5.57;2.10;;;;;;;;;;5005998;28;22530;-46
2022/10/14 10:53:04;;;;;;;3.08;2.20;;;;;;;;;;5006677;28;20046;-45
2022/10/14 10:55:52;;;;;;;2.38;1.70;;;;;;;;;;5008441;28;20462;-44
2022/10/14 10:58:48;;;;;;;3.35;1.30;;;;;;;;;;5005813;28;20069;-43
2022/10/14 11:01:51;;;;;;;2.08;1.23;;;;;;;;;;5002656;28;20509;-43
2022/10/14 11:04:32;;;;;;;5.38;1.45;;;;;;;;;;5001957;28;20457;-48
2022/10/14 11:13:40;;;;;;;1.58;0.70;;;;;;;;;;5004528;28;20092;-48
2022/10/14 11:16:09;;;;;;;8.75;1.10;;;;;;;;;;5004942;28;20034;-45
2022/10/14 11:18:45;;;;;;;0.80;0.80;;;;;;;;;;5003360;28;20046;-44
2022/10/14 11:21:31;;;;;;;0.95;0.70;;;;;;;;;;5004631;28;20117;-43
2022/10/14 11:24:21;;;;;;;3.70;0.98;;;;;;;;;;4999124;28;20056;-43
2022/10/14 11:26:52;;;;;;;3.17;0.98;;;;;;;;;;5004804;28;20062;-45
2022/10/14 11:29:47;;;;;;;2.42;0.82;;;;;;;;;;5005480;28;20038;-43
2022/10/14 11:32:36;;;;;;;0.80;0.80;;;;;;;;;;5005723;28;20048;-44
2022/10/14 11:35:32;;;;;;;4.13;1.10;;;;;;;;;;4999471;28;20444;-46
2022/10/14 11:38:20;;;;;;;1.08;0.80;;;;;;;;;;5020592;28;20529;-42
2022/10/14 11:41:04;;;;;;;0.70;0.70;;;;;;;;;;5001332;28;20410;-47
2022/10/14 11:43:51;;;;;;;1.45;0.90;;;;;;;;;;5002595;28;20129;-47
2022/10/14 11:46:19;;;;;;;1.20;1.10;;;;;;;;;;5004318;28;20045;-46
2022/10/14 11:49:12;;;;;;;4.93;1.17;;;;;;;;;;5001988;28;20125;-47
2022/10/14 11:52:06;;;;;;;2.47;1.15;;;;;;;;;;4989567;28;20037;-45
2022/10/14 11:54:40;;;;;;;1.45;1.23;;;;;;;;;;5006081;28;20045;-47
2022/10/14 11:57:26;;;;;;;3.80;1.55;;;;;;;;;;5007291;28;20119;-45
2022/10/14 12:00:01;;;;;;;2.33;1.80;;;;;;;;;;5009626;28;20056;-47
2022/10/14 12:02:57;;;;;;;7.28;1.60;;;;;;;;;;5007939;28;20095;-47
2022/10/14 12:05:58;;;;;;;2.40;1.58;;;;;;;;;;5003170;28;20034;-46
2022/10/14 12:08:43;;;;;;;1.55;1.45;;;;;;;;;;5007222;28;20069;-44
2022/10/14 12:11:29;;;;;;;3.28;1.52;;;;;;;;;;5002743;28;20029;-43
2022/10/14 12:14:16;;;;;;;3.03;1.58;;;;;;;;;;5003159;28;20053;-43
2022/10/14 12:16:43;;;;;;;4.30;1.40;;;;;;;;;;5002924;28;20050;-43
2022/10/14 12:19:11;;;;;;;2.95;1.48;;;;;;;;;;5004303;28;20506;-42
2022/10/14 12:21:45;;;;;;;2.10;1.60;;;;;;;;;;4999876;28;20061;-43
2022/10/14 12:24:14;;;;;;;2.10;1.65;;;;;;;;;;5007834;28;20030;-43
2022/10/14 12:27:03;;;;;;;4.25;2.20;;;;;;;;;;5003941;28;20026;-43
2022/10/14 12:29:36;;;;;;;2.05;1.70;;;;;;;;;;5004179;28;20029;-43
2022/10/14 12:32:08;;;;;;;3.95;1.60;;;;;;;;;;5003391;28;20784;-43
2022/10/14 12:34:45;;;;;;;1.90;1.80;;;;;;;;;;5006277;28;20040;-42
2022/10/14 12:37:36;;;;;;;2.42;1.80;;;;;;;;;;5003683;28;20038;-43
2022/10/14 12:40:05;;;;;;;4.28;1.58;;;;;;;;;;5003387;28;20026;-42
2022/10/14 12:42:43;;;;;;;1.98;1.88;;;;;;;;;;5006229;28;20553;-42
2022/10/14 12:45:18;;;;;;;1.98;1.77;;;;;;;;;;5003938;28;20033;-43
2022/10/14 12:47:44;;;;;;;2.85;1.83;;;;;;;;;;5009100;28;20520;-43
2022/10/14 12:50:12;;;;;;;2.75;2.15;;;;;;;;;;5006196;28;20033;-43
2022/10/14 12:52:38;;;;;;;4.35;2.15;;;;;;;;;;5003760;28;20096;-42
2022/10/14 12:55:19;;;;;;;5.07;2.13;;;;;;;;;;5006477;28;20026;-44
2022/10/14 12:57:53;;;;;;;6.78;1.92;;;;;;;;;;5006600;28;20038;-42
2022/10/14 13:00:22;;;;;;;1.70;1.60;;;;;;;;;;5007858;28;20092;-44
2022/10/14 13:02:50;;;;;;;2.30;1.58;;;;;;;;;;5008721;28;20073;-43
2022/10/14 13:05:30;;;;;;;3.60;1.95;;;;;;;;;;5004323;28;20031;-42
2022/10/14 13:08:14;;;;;;;2.42;1.67;;;;;;;;;;5003725;28;20483;-42
2022/10/14 13:10:53;;;;;;;2.15;1.65;;;;;;;;;;5006040;28;20041;-42
2022/10/14 13:13:37;;;;;;;1.40;1.30;;;;;;;;;;5006536;28;20042;-42
2022/10/14 13:16:22;;;;;;;2.85;1.25;;;;;;;;;;5004876;28;20510;-42
2022/10/14 13:18:52;;;;;;;2.30;1.40;;;;;;;;;;4944349;28;20103;-42
2022/10/14 13:21:51;;;;;;;3.30;1.30;;;;;;;;;;4945216;28;20039;-42
2022/10/14 13:24:24;;;;;;;3.72;1.20;;;;;;;;;;4943667;28;20587;-43
2022/10/14 13:27:01;;;;;;;3.45;1.25;;;;;;;;;;4946982;28;20039;-42
2022/10/14 13:29:29;;;;;;;2.08;0.95;;;;;;;;;;4946412;28;20043;-43
2022/10/14 13:31:57;;;;;;;3.17;1.10;;;;;;;;;;4945411;28;20647;-43
2022/10/14 13:34:29;;;;;;;1.08;1.05;;;;;;;;;;4946621;28;20055;-42
2022/10/14 13:37:15;;;;;;;3.13;1.30;;;;;;;;;;4943531;28;20098;-42
2022/10/14 13:39:41;;;;;;;4.88;1.13;;;;;;;;;;4946437;28;20420;-42
2022/10/14 13:42:13;;;;;;;1.08;0.98;;;;;;;;;;4944185;28;20057;-42
2022/10/14 13:44:38;;;;;;;1.58;1.10;;;;;;;;;;4946685;28;20078;-43
2022/10/14 13:47:04;;;;;;;1.77;0.93;;;;;;;;;;4945147;29;20519;-42
2022/10/14 13:49:35;;;;;;;1.38;1.27;;;;;;;;;;4945197;28;20032;-42
2022/10/14 13:52:17;;;;;;;2.80;1.02;;;;;;;;;;4943214;28;20035;-43
2022/10/14 13:54:42;;;;;;;1.00;1.00;;;;;;;;;;4942400;28;20049;-43
2022/10/14 13:57:16;;;;;;;1.42;1.20;;;;;;;;;;5001576;28;20039;-44
2022/10/14 13:59:44;;;;;;;2.00;1.13;;;;;;;;;;5005667;28;20037;-42
2022/10/14 14:02:15;;;;;;;3.25;1.08;;;;;;;;;;5005397;28;20108;-42
2022/10/14 14:04:48;;;;;;;5.78;1.30;;;;;;;;;;5005869;28;20064;-42
2022/10/14 14:07:17;;;;;;;2.85;1.33;;;;;;;;;;5004641;28;20038;-42
2022/10/14 14:09:48;;;;;;;2.00;1.00;;;;;;;;;;5005588;28;20056;-44
2022/10/14 14:12:14;;;;;;;6.47;1.10;;;;;;;;;;5002647;28;20048;-43
2022/10/14 14:14:42;;;;;;;2.92;1.25;;;;;;;;;;5004926;28;20050;-42
2022/10/14 14:17:22;;;;;;;1.10;1.00;;;;;;;;;;5003919;28;20053;-42
2022/10/14 14:19:49;;;;;;;1.40;1.30;;;;;;;;;;5005142;28;20386;-45
2022/10/14 14:22:26;;;;;;;2.08;1.10;;;;;;;;;;5007454;28;20034;-45
2022/10/14 14:25:09;;;;;;;0.85;0.85;;;;;;;;;;5006290;28;20044;-42
2022/10/14 14:27:34;;;;;;;2.83;1.10;;;;;;;;;;5004742;28;20038;-44
2022/10/14 14:30:01;;;;;;;1.55;1.40;;;;;;;;;;5001099;28;20053;-45
2022/10/14 14:32:31;;;;;;;1.00;0.93;;;;;;;;;;5004833;28;20041;-43
2022/10/14 14:34:57;;;;;;;4.00;1.35;;;;;;;;;;5006790;28;20084;-43
2022/10/14 14:37:25;;;;;;;2.50;1.10;;;;;;;;;;5002591;28;20096;-44
2022/10/14 14:40:02;;;;;;;1.55;1.17;;;;;;;;;;5000331;28;20513;-43
2022/10/14 14:42:39;;;;;;;3.38;1.70;;;;;;;;;;5002824;28;20092;-43
2022/10/14 14:45:19;;;;;;;4.00;1.50;;;;;;;;;;4996567;28;20040;-43
2022/10/14 14:47:52;;;;;;;4.13;1.50;;;;;;;;;;5000568;28;20049;-44
2022/10/14 14:50:23;;;;;;;4.60;1.05;;;;;;;;;;5000561;28;20505;-43
2022/10/14 14:52:50;;;;;;;3.50;1.20;;;;;;;;;;4997966;28;20123;-45
2022/10/14 14:55:37;;;;;;;3.78;1.25;;;;;;;;;;5003925;28;20482;-43
2022/10/14 14:58:06;;;;;;;1.02;0.93;;;;;;;;;;5003953;28;20069;-42
2022/10/14 15:00:31;;;;;;;0.93;0.82;;;;;;;;;;5000702;28;20023;-43
2022/10/14 15:03:02;;;;;;;3.00;1.00;;;;;;;;;;5003565;28;20407;-44
2022/10/14 15:05:28;;;;;;;2.10;1.15;;;;;;;;;;5002257;28;20767;-43
2022/10/14 15:07:54;;;;;;;2.15;1.00;;;;;;;;;;5001710;28;20486;-42
2022/10/14 15:10:23;;;;;;;2.60;0.90;;;;;;;;;;5002478;28;20495;-43